createdAt,value
2019-01-11T00:01:00.160Z,3.07
2019-01-11T00:03:29.245Z,7.43
2019-01-11T00:05:58.183Z,8.00
2019-01-11T00:08:26.942Z,9.40
2019-01-11T00:10:55.619Z,6.73
2019-01-11T00:13:24.242Z,7.10
2019-01-11T00:15:53.124Z,7.87
2019-01-11T00:18:21.775Z,6.93
2019-01-11T00:20:50.459Z,6.80
2019-01-11T00:23:19.130Z,5.47
2019-01-11T00:25:47.741Z,6.63
2019-01-11T00:28:16.506Z,5.97
2019-01-11T00:30:45.232Z,2.93
2019-01-11T00:33:13.926Z,5.97
2019-01-11T00:35:42.566Z,6.30
2019-01-11T00:38:11.233Z,5.03
2019-01-11T00:40:39.941Z,7.77
2019-01-11T00:43:14.873Z,5.07
2019-01-11T00:45:38.963Z,6.23
2019-01-11T00:48:07.589Z,7.53
2019-01-11T00:50:36.233Z,8.50
2019-01-11T00:53:05.094Z,7.83
2019-01-11T00:55:33.718Z,6.80
2019-01-11T00:58:02.362Z,7.77
2019-01-11T01:00:31.026Z,6.67
2019-01-11T01:02:59.725Z,4.13
2019-01-11T01:05:28.438Z,5.13
2019-01-11T01:07:57.371Z,7.63
2019-01-11T01:10:26.780Z,6.80
2019-01-11T01:12:55.408Z,6.70
2019-01-11T01:18:05.468Z,7.40
2019-01-11T01:20:34.547Z,6.20
2019-01-11T01:23:03.240Z,4.30
2019-01-11T01:25:31.904Z,5.10
2019-01-11T01:28:00.601Z,6.00
2019-01-11T01:30:29.227Z,5.80
2019-01-11T01:32:58.053Z,4.40
2019-01-11T01:35:26.680Z,6.43
2019-01-11T01:37:55.369Z,5.83
2019-01-11T01:40:24.096Z,6.77
2019-01-11T01:42:52.713Z,5.73
2019-01-11T01:45:21.610Z,7.47
2019-01-11T01:47:50.339Z,6.40
2019-01-11T01:50:18.976Z,5.63
2019-01-11T01:52:47.688Z,4.83
2019-01-11T01:55:16.611Z,5.30
2019-01-11T01:57:45.237Z,6.70
2019-01-11T02:00:20.332Z,6.67
2019-01-11T02:02:49.222Z,6.40
2019-01-11T02:05:17.929Z,5.90
2019-01-11T02:07:46.558Z,5.73
2019-01-11T02:10:15.811Z,4.63
2019-01-11T02:12:44.510Z,4.33
2019-01-11T02:15:13.526Z,5.93
2019-01-11T02:17:42.346Z,6.90
2019-01-11T02:20:14.183Z,7.33
2019-01-11T02:22:43.115Z,4.33
2019-01-11T02:25:11.814Z,8.43
2019-01-11T02:27:40.438Z,7.70
2019-01-11T02:30:17.980Z,8.07
2019-01-11T02:32:52.358Z,8.60
2019-01-11T02:35:17.152Z,5.27
2019-01-11T02:37:45.856Z,7.57
2019-01-11T02:40:14.688Z,8.00
2019-01-11T02:42:43.441Z,9.03
2019-01-11T02:45:15.357Z,9.57
2019-01-11T02:47:43.988Z,10.03
2019-01-11T02:50:13.692Z,9.13
2019-01-11T02:52:42.381Z,9.37
2019-01-11T02:55:11.147Z,8.37
2019-01-11T02:57:39.855Z,8.13
2019-01-11T03:00:15.013Z,9.23
2019-01-11T03:02:43.708Z,7.43
2019-01-11T03:05:12.844Z,8.93
2019-01-11T03:07:41.533Z,9.83
2019-01-11T03:10:13.147Z,8.93
2019-01-11T03:12:41.776Z,10.23
2019-01-11T03:15:11.850Z,8.63
2019-01-11T03:17:40.748Z,9.93
2019-01-11T03:20:12.336Z,9.43
2019-01-11T03:22:41.070Z,9.80
2019-01-11T03:25:12.193Z,9.77
2019-01-11T03:27:40.991Z,10.60
2019-01-11T03:30:13.040Z,9.80
2019-01-11T03:32:41.736Z,9.67
2019-01-11T03:35:14.677Z,9.83
2019-01-11T03:37:44.060Z,10.40
2019-01-11T03:40:15.579Z,9.17
2019-01-11T03:42:44.413Z,8.43
2019-01-11T03:45:15.743Z,9.77
2019-01-11T03:47:44.434Z,9.03
2019-01-11T03:50:15.664Z,9.80
2019-01-11T03:52:44.633Z,9.13
2019-01-11T03:55:14.545Z,9.30
2019-01-11T03:57:43.303Z,9.43
2019-01-11T04:00:18.173Z,10.47
2019-01-11T04:02:46.993Z,11.27
2019-01-11T04:05:15.932Z,11.53
2019-01-11T04:07:44.926Z,8.47
2019-01-11T04:10:16.250Z,10.77
2019-01-11T04:12:44.866Z,9.30
2019-01-11T04:15:16.015Z,10.23
2019-01-11T04:17:45.020Z,11.63
2019-01-11T04:20:18.800Z,10.60
2019-01-11T04:22:49.336Z,11.27
2019-01-11T04:25:19.756Z,12.83
2019-01-11T04:27:48.471Z,11.97
2019-01-11T04:30:17.613Z,13.03
2019-01-11T04:32:46.242Z,12.73
2019-01-11T04:35:15.556Z,14.10
2019-01-11T04:37:44.305Z,11.77
2019-01-11T04:40:14.815Z,12.97
2019-01-11T04:42:43.445Z,11.97
2019-01-11T04:45:12.278Z,11.73
2019-01-11T04:47:40.980Z,12.67
2019-01-11T04:50:12.212Z,13.10
2019-01-11T04:52:40.844Z,13.63
2019-01-11T04:55:09.756Z,10.43
2019-01-11T04:57:38.723Z,10.50
2019-01-11T05:00:13.470Z,10.10
2019-01-11T05:02:42.087Z,7.53
2019-01-11T05:05:10.757Z,8.80
2019-01-11T05:07:39.467Z,10.00
2019-01-11T05:10:13.525Z,11.67
2019-01-11T05:12:45.284Z,12.17
2019-01-11T05:15:14.126Z,11.40
2019-01-11T05:17:42.818Z,12.07
2019-01-11T05:20:16.666Z,11.63
2019-01-11T05:22:43.694Z,11.47
2019-01-11T05:25:12.406Z,12.83
2019-01-11T05:27:41.078Z,14.10
2019-01-11T05:30:12.682Z,13.57
2019-01-11T05:32:41.389Z,14.80
2019-01-11T05:35:10.225Z,14.10
2019-01-11T05:37:38.848Z,16.17
2019-01-11T05:40:16.053Z,13.90
2019-01-11T05:42:44.755Z,14.47
2019-01-11T05:45:13.662Z,18.27
2019-01-11T05:47:42.927Z,15.57
2019-01-11T05:50:24.094Z,15.17
2019-01-11T05:52:48.528Z,13.43
2019-01-11T05:55:18.817Z,14.97
2019-01-11T05:57:49.073Z,14.80
2019-01-11T06:00:17.822Z,13.13
2019-01-11T06:02:46.450Z,12.67
2019-01-11T06:05:15.102Z,11.73
2019-01-11T06:07:45.243Z,12.90
2019-01-11T06:10:15.391Z,14.07
2019-01-11T06:12:44.018Z,15.20
2019-01-11T06:15:12.806Z,16.50
2019-01-11T06:17:41.466Z,14.27
2019-01-11T06:20:13.443Z,18.70
2019-01-11T06:22:42.170Z,16.70
2019-01-11T06:25:10.796Z,17.57
2019-01-11T06:27:39.489Z,15.90
2019-01-11T06:30:11.272Z,17.03
2019-01-11T06:32:39.986Z,16.80
2019-01-11T06:35:08.692Z,14.03
2019-01-11T06:37:37.377Z,13.57
2019-01-11T06:40:09.065Z,12.97
2019-01-11T06:42:37.943Z,11.87
2019-01-11T06:45:09.684Z,9.50
2019-01-11T06:47:39.184Z,10.53
2019-01-11T06:50:13.725Z,11.50
2019-01-11T06:52:42.622Z,14.57
2019-01-11T06:55:12.158Z,15.00
2019-01-11T06:57:40.862Z,14.07
2019-01-11T07:00:14.887Z,13.63
2019-01-11T07:02:43.715Z,13.53
2019-01-11T07:05:12.521Z,13.67
2019-01-11T07:07:41.226Z,12.23
2019-01-11T07:10:15.466Z,14.43
2019-01-11T07:12:44.093Z,17.77
2019-01-11T07:15:13.143Z,18.03
2019-01-11T07:17:41.835Z,17.83
2019-01-11T07:20:12.939Z,19.60
2019-01-11T07:22:41.714Z,20.97
2019-01-11T07:25:15.117Z,21.73
2019-01-11T07:27:45.379Z,22.00
2019-01-11T07:30:15.850Z,22.60
2019-01-11T07:32:44.557Z,25.43
2019-01-11T07:35:13.311Z,25.47
2019-01-11T07:37:42.325Z,24.83
2019-01-11T07:40:12.916Z,24.30
2019-01-11T07:42:41.638Z,23.00
2019-01-11T07:45:12.813Z,25.27
2019-01-11T07:47:41.515Z,23.77
2019-01-11T07:50:10.913Z,37.73
2019-01-11T07:52:40.255Z,23.35
2019-01-11T07:55:09.821Z,61.67
2019-01-11T07:57:38.548Z,18.83
2019-01-11T08:00:14.075Z,30.70
2019-01-11T08:02:42.694Z,24.07
2019-01-11T08:05:11.353Z,29.20
2019-01-11T08:07:40.273Z,25.90
2019-01-11T08:10:11.468Z,16.20
2019-01-11T08:12:40.095Z,13.90
2019-01-11T08:15:17.597Z,14.67
2019-01-11T08:17:46.257Z,13.17
2019-01-11T08:20:14.949Z,14.77
2019-01-11T08:25:18.113Z,13.47
2019-01-11T08:27:46.829Z,11.90
2019-01-11T08:30:18.358Z,11.43
2019-01-11T08:32:47.045Z,14.53
2019-01-11T08:35:16.031Z,11.80
2019-01-11T08:37:45.626Z,44.67
2019-01-11T08:40:17.228Z,11.47
2019-01-11T08:42:45.851Z,10.43
2019-01-11T08:45:15.077Z,16.70
2019-01-11T08:47:43.916Z,9.80
2019-01-11T08:50:17.999Z,8.23
2019-01-11T08:52:47.101Z,9.33
2019-01-11T08:55:15.832Z,9.97
2019-01-11T08:57:44.524Z,9.93
2019-01-11T09:00:17.026Z,7.97
2019-01-11T09:02:45.976Z,7.80
2019-01-11T09:05:14.729Z,8.30
2019-01-11T09:07:43.362Z,7.93
2019-01-11T09:10:22.848Z,7.63
2019-01-11T09:12:48.139Z,6.13
2019-01-11T09:15:16.968Z,5.77
2019-01-11T09:17:47.261Z,6.93
2019-01-11T09:20:15.882Z,8.13
2019-01-11T09:22:44.488Z,9.27
2019-01-11T09:25:13.363Z,11.03
2019-01-11T09:30:17.950Z,8.07
2019-01-11T09:32:46.829Z,8.90
2019-01-11T09:35:16.105Z,10.37
2019-01-11T09:37:44.848Z,11.27
2019-01-11T09:40:13.582Z,11.77
2019-01-11T09:42:42.288Z,11.93
2019-01-11T09:45:10.953Z,12.90
2019-01-11T09:47:39.662Z,10.53
2019-01-11T09:50:10.074Z,10.03
2019-01-11T09:52:39.004Z,11.30
2019-01-11T09:55:08.722Z,11.80
2019-01-11T09:57:37.429Z,10.70
2019-01-11T10:00:12.034Z,14.33
2019-01-11T10:02:40.995Z,13.30
2019-01-11T10:05:10.321Z,14.97
2019-01-11T10:07:39.213Z,12.87
2019-01-11T10:10:10.699Z,13.23
2019-01-11T10:12:39.327Z,11.03
2019-01-11T10:15:10.570Z,7.83
2019-01-11T10:17:39.368Z,9.63
2019-01-11T10:20:10.508Z,9.37
2019-01-11T10:22:39.178Z,9.07
2019-01-11T10:25:09.914Z,10.83
2019-01-11T10:27:38.625Z,10.83
2019-01-11T10:30:10.571Z,11.83
2019-01-11T10:32:39.216Z,13.17
2019-01-11T10:35:09.235Z,10.93
2019-01-11T10:37:38.079Z,10.33
2019-01-11T10:40:09.359Z,10.97
2019-01-11T10:42:37.987Z,14.93
2019-01-11T10:45:09.554Z,16.67
2019-01-11T10:47:38.187Z,15.40
2019-01-11T10:50:12.666Z,11.93
2019-01-11T10:52:41.645Z,12.33
2019-01-11T10:55:12.540Z,11.20
2019-01-11T10:57:41.640Z,17.03
2019-01-11T11:00:13.591Z,11.27
2019-01-11T11:02:42.287Z,11.83
2019-01-11T11:05:10.997Z,9.70
2019-01-11T11:07:39.623Z,10.03
2019-01-11T11:10:10.746Z,9.50
2019-01-11T11:12:39.488Z,15.03
2019-01-11T11:15:10.999Z,13.23
2019-01-11T11:17:39.635Z,14.60
2019-01-11T11:20:11.128Z,17.37
2019-01-11T11:22:39.833Z,14.57
2019-01-11T11:25:11.465Z,17.30
2019-01-11T11:27:40.134Z,14.43
2019-01-11T11:30:11.646Z,10.20
2019-01-11T11:32:59.616Z,10.20
2019-01-11T11:35:28.410Z,10.50
2019-01-11T11:37:57.127Z,11.93
2019-01-11T11:40:33.622Z,9.93
2019-01-11T11:43:02.319Z,10.43
2019-01-11T11:45:30.965Z,11.07
2019-01-11T11:47:59.751Z,11.63
2019-01-11T11:50:28.458Z,14.00
2019-01-11T11:52:57.170Z,12.03
2019-01-11T11:55:25.884Z,5.27
2019-01-11T11:57:54.634Z,9.00
2019-01-11T12:00:25.224Z,10.37
2019-01-11T12:02:53.963Z,10.57
2019-01-11T12:05:22.669Z,13.10
2019-01-11T12:07:51.436Z,11.60
2019-01-11T12:10:20.498Z,8.77
2019-01-11T12:12:49.129Z,10.50
2019-01-11T12:15:17.840Z,11.77
2019-01-11T12:17:46.532Z,9.70
2019-01-11T12:20:18.079Z,10.33
2019-01-11T12:22:46.709Z,9.27
2019-01-11T12:25:15.389Z,10.83
2019-01-11T12:27:44.100Z,11.30
2019-01-11T12:30:14.927Z,15.77
2019-01-11T12:32:43.850Z,14.63
2019-01-11T12:35:12.485Z,16.07
2019-01-11T12:37:41.184Z,18.60
2019-01-11T12:40:12.559Z,14.97
2019-01-11T12:42:41.258Z,15.63
2019-01-11T12:45:15.276Z,15.80
2019-01-11T12:47:43.906Z,17.27
2019-01-11T12:50:21.301Z,24.27
2019-01-11T12:52:50.032Z,19.77
2019-01-11T12:55:18.668Z,20.73
2019-01-11T12:57:47.307Z,44.07
2019-01-11T13:00:17.860Z,28.73
2019-01-11T13:02:46.663Z,24.13
2019-01-11T13:05:17.857Z,21.50
2019-01-11T13:07:49.578Z,18.77
2019-01-11T13:10:19.572Z,16.37
2019-01-11T13:12:48.292Z,14.70
2019-01-11T13:15:18.858Z,9.97
2019-01-11T13:17:47.570Z,13.60
2019-01-11T13:20:18.007Z,12.67
2019-01-11T13:22:46.735Z,13.13
2019-01-11T13:25:15.462Z,16.87
2019-01-11T13:27:44.166Z,15.97
2019-01-11T13:30:17.506Z,13.03
2019-01-11T13:32:46.433Z,16.23
2019-01-11T13:35:15.207Z,16.50
2019-01-11T13:37:44.133Z,17.07
2019-01-11T13:40:21.138Z,16.70
2019-01-11T13:42:50.090Z,19.83
2019-01-11T13:45:18.796Z,19.67
2019-01-11T13:47:47.439Z,17.77
2019-01-11T13:50:19.090Z,16.90
2019-01-11T13:52:47.727Z,15.50
2019-01-11T13:55:16.402Z,13.60
2019-01-11T13:57:45.442Z,16.47
2019-01-11T14:00:14.921Z,14.97
2019-01-11T14:02:43.568Z,14.57
2019-01-11T14:05:12.374Z,14.83
2019-01-11T14:07:41.071Z,15.03
2019-01-11T14:10:09.745Z,14.30
2019-01-11T14:12:38.364Z,17.70
2019-01-11T14:15:09.555Z,17.33
2019-01-11T14:17:38.307Z,16.23
2019-01-11T14:20:11.706Z,17.00
2019-01-11T14:22:40.330Z,18.97
2019-01-11T14:25:11.059Z,20.50
2019-01-11T14:27:39.702Z,20.87
2019-01-11T14:30:14.124Z,28.07
2019-01-11T14:32:43.187Z,16.57
2019-01-11T14:35:11.840Z,19.30
2019-01-11T14:37:40.478Z,18.50
2019-01-11T14:40:12.190Z,18.60
2019-01-11T14:42:40.817Z,18.03
2019-01-11T14:45:12.328Z,20.43
2019-01-11T14:47:41.009Z,15.60
2019-01-11T14:50:17.496Z,16.17
2019-01-11T14:52:46.725Z,15.73
2019-01-11T14:55:15.370Z,15.93
2019-01-11T14:57:44.076Z,15.37
2019-01-11T15:00:21.126Z,15.70
2019-01-11T15:02:49.745Z,16.53
2019-01-11T15:05:19.469Z,17.63
2019-01-11T15:07:48.609Z,19.27
2019-01-11T15:10:17.649Z,20.70
2019-01-11T15:12:47.491Z,21.87
2019-01-11T15:15:16.461Z,26.30
2019-01-11T15:17:45.164Z,32.57
2019-01-11T15:20:15.884Z,27.97
2019-01-11T15:22:44.727Z,28.87
2019-01-11T15:25:13.425Z,24.87
2019-01-11T15:27:42.124Z,21.40
2019-01-11T15:30:22.645Z,25.40
2019-01-11T15:32:51.269Z,25.47
2019-01-11T15:35:20.000Z,20.27
2019-01-11T15:37:48.962Z,25.80
2019-01-11T15:40:25.296Z,22.37
2019-01-11T15:42:53.982Z,22.27
2019-01-11T15:45:22.764Z,21.53
2019-01-11T15:47:51.475Z,23.27
2019-01-11T15:50:53.564Z,25.37
2019-01-11T15:53:22.249Z,25.43
2019-01-11T15:55:50.882Z,28.13
2019-01-11T15:58:19.517Z,30.03
2019-01-11T16:00:49.321Z,29.33
2019-01-11T16:03:18.017Z,27.33
2019-01-11T16:05:46.656Z,27.70
2019-01-11T16:08:15.337Z,28.67
2019-01-11T16:11:03.256Z,27.17
2019-01-11T16:13:31.925Z,30.50
2019-01-11T16:16:02.392Z,26.80
2019-01-11T16:18:31.035Z,25.43
2019-01-11T16:20:59.778Z,30.03
2019-01-11T16:23:28.488Z,35.30
2019-01-11T16:25:57.131Z,29.77
2019-01-11T16:28:25.832Z,29.30
2019-01-11T16:30:54.529Z,32.40
2019-01-11T16:33:23.174Z,32.10
2019-01-11T16:35:51.872Z,33.37
2019-01-11T16:38:20.509Z,32.73
2019-01-11T16:40:49.393Z,19.87
2019-01-11T16:43:18.041Z,21.30
2019-01-11T16:45:46.750Z,23.27
2019-01-11T16:48:15.514Z,17.87
2019-01-11T16:50:44.143Z,30.77
2019-01-11T16:53:12.778Z,14.47
2019-01-11T16:55:41.477Z,15.33
2019-01-11T16:58:10.178Z,14.80
2019-01-11T17:00:38.865Z,10.53
2019-01-11T17:03:07.608Z,11.43
2019-01-11T17:05:36.326Z,15.50
2019-01-11T17:08:05.017Z,12.37
2019-01-11T17:10:33.695Z,16.57
2019-01-11T17:13:02.410Z,11.90
2019-01-11T17:15:31.039Z,13.40
2019-01-11T17:17:59.724Z,15.47
2019-01-11T17:20:28.432Z,17.13
2019-01-11T17:22:57.146Z,14.30
2019-01-11T17:25:26.705Z,19.30
2019-01-11T17:27:55.391Z,18.20
2019-01-11T17:30:24.085Z,20.80
2019-01-11T17:32:52.841Z,22.27
2019-01-11T17:35:21.481Z,20.30
2019-01-11T17:37:50.180Z,22.93
2019-01-11T17:40:18.870Z,16.03
2019-01-11T17:42:47.506Z,19.23
2019-01-11T17:45:16.209Z,26.57
2019-01-11T17:47:44.873Z,26.17
2019-01-11T17:50:15.497Z,27.90
2019-01-11T17:52:44.201Z,27.50
2019-01-11T17:55:13.051Z,27.70
2019-01-11T17:57:41.745Z,29.60
2019-01-11T18:00:13.325Z,29.80
2019-01-11T18:02:41.996Z,25.43
2019-01-11T18:05:12.636Z,24.50
2019-01-11T18:07:41.764Z,22.97
2019-01-11T18:10:16.463Z,18.10
2019-01-11T18:12:45.086Z,15.30
2019-01-11T18:15:19.308Z,13.40
2019-01-11T18:17:48.110Z,11.57
2019-01-11T18:20:19.518Z,11.00
2019-01-11T18:22:48.153Z,13.70
2019-01-11T18:25:17.010Z,14.00
2019-01-11T18:27:45.729Z,16.20
2019-01-11T18:30:18.559Z,12.37
2019-01-11T18:32:47.444Z,14.67
2019-01-11T18:35:16.591Z,15.83
2019-01-11T18:37:45.377Z,15.23
2019-01-11T18:40:19.465Z,16.97
2019-01-11T18:42:48.095Z,18.03
2019-01-11T18:45:16.993Z,20.80
2019-01-11T18:47:45.674Z,34.17
2019-01-11T18:50:16.998Z,16.83
2019-01-11T18:52:45.636Z,15.77
2019-01-11T18:55:14.583Z,19.80
2019-01-11T18:57:43.395Z,19.33
2019-01-11T19:00:17.715Z,17.20
2019-01-11T19:02:46.635Z,17.77
2019-01-11T19:05:15.853Z,17.40
2019-01-11T19:07:46.091Z,16.40
2019-01-11T19:10:17.326Z,16.63
2019-01-11T19:12:46.018Z,16.00
2019-01-11T19:15:23.411Z,16.43
2019-01-11T19:17:52.056Z,17.17
2019-01-11T19:20:25.938Z,16.50
2019-01-11T19:22:54.894Z,16.40
2019-01-11T19:25:23.508Z,16.17
2019-01-11T19:27:52.138Z,17.43
2019-01-11T19:30:22.778Z,16.63
2019-01-11T19:32:51.498Z,17.03
2019-01-11T19:35:20.129Z,13.60
2019-01-11T19:37:48.938Z,15.13
2019-01-11T19:40:18.058Z,17.00
2019-01-11T19:42:47.575Z,16.57
2019-01-11T19:45:17.394Z,17.47
2019-01-11T19:47:46.104Z,18.97
2019-01-11T19:50:22.106Z,19.00
2019-01-11T19:52:50.874Z,18.90
2019-01-11T19:55:20.283Z,17.97
2019-01-11T19:57:49.125Z,19.37
2019-01-11T20:00:23.130Z,19.63
2019-01-11T20:02:51.966Z,19.57
2019-01-11T20:05:20.965Z,17.60
2019-01-11T20:07:50.041Z,24.40
2019-01-11T20:10:24.451Z,21.70
2019-01-11T20:12:53.100Z,20.03
2019-01-11T20:15:21.865Z,20.90
2019-01-11T20:17:50.554Z,18.27
2019-01-11T20:20:19.191Z,17.97
2019-01-11T20:22:47.890Z,19.70
2019-01-11T20:25:18.891Z,18.47
2019-01-11T20:27:47.793Z,18.37
2019-01-11T20:30:21.972Z,17.97
2019-01-11T20:32:50.767Z,19.63
2019-01-11T20:35:19.471Z,18.03
2019-01-11T20:37:48.128Z,17.50
2019-01-11T20:40:17.734Z,18.97
2019-01-11T20:42:46.551Z,21.37
2019-01-11T20:45:17.332Z,19.47
2019-01-11T20:47:45.966Z,19.03
2019-01-11T20:50:17.039Z,18.63
2019-01-11T20:52:45.825Z,18.90
2019-01-11T20:55:14.611Z,19.13
2019-01-11T20:57:43.674Z,19.23
2019-01-11T21:00:17.835Z,18.30
2019-01-11T21:02:46.532Z,18.53
2019-01-11T21:05:21.444Z,19.87
2019-01-11T21:07:50.333Z,21.67
2019-01-11T21:10:19.324Z,23.47
2019-01-11T21:12:47.967Z,24.00
2019-01-11T21:15:19.765Z,22.93
2019-01-11T21:17:48.714Z,22.97
2019-01-11T21:20:19.441Z,24.30
2019-01-11T21:22:48.897Z,22.67
2019-01-11T21:25:19.259Z,23.43
2019-01-11T21:27:48.282Z,22.40
2019-01-11T21:30:22.458Z,26.93
2019-01-11T21:32:51.088Z,27.67
2019-01-11T21:35:19.893Z,26.83
2019-01-11T21:37:48.587Z,30.33
2019-01-11T21:40:19.478Z,30.70
2019-01-11T21:42:48.814Z,27.13
2019-01-11T21:45:18.171Z,28.37
2019-01-11T21:47:46.940Z,27.63
2019-01-11T21:50:18.133Z,26.93
2019-01-11T21:52:47.061Z,26.10
2019-01-11T21:55:15.981Z,27.67
2019-01-11T21:57:45.416Z,25.53
2019-01-11T22:00:19.881Z,26.60
2019-01-11T22:02:48.589Z,25.10
2019-01-11T22:05:17.511Z,21.93
2019-01-11T22:07:46.175Z,20.07
2019-01-11T22:10:16.410Z,21.03
2019-01-11T22:12:45.103Z,22.57
2019-01-11T22:15:18.460Z,24.80
2019-01-11T22:17:47.174Z,23.97
2019-01-11T22:20:17.365Z,21.47
2019-01-11T22:22:46.115Z,20.83
2019-01-11T22:25:16.337Z,22.23
2019-01-11T22:27:44.968Z,22.17
2019-01-11T22:30:16.682Z,22.33
2019-01-11T22:32:45.307Z,21.73
2019-01-11T22:35:14.417Z,127.30
2019-01-11T22:37:43.234Z,25.70
2019-01-11T22:40:14.369Z,21.67
2019-01-11T22:42:43.002Z,23.30
2019-01-11T22:45:13.991Z,20.60
2019-01-11T22:47:42.660Z,21.20
2019-01-11T22:50:16.052Z,21.17
2019-01-11T22:52:45.019Z,21.67
2019-01-11T22:55:15.614Z,19.57
2019-01-11T22:57:44.372Z,20.87
2019-01-11T23:00:41.554Z,20.30
2019-01-11T23:03:15.849Z,19.00
2019-01-11T23:05:44.627Z,20.03
2019-01-11T23:08:15.468Z,22.20
2019-01-11T23:10:58.730Z,18.07
2019-01-11T23:13:27.475Z,16.23
2019-01-11T23:15:56.113Z,15.33
2019-01-11T23:18:24.741Z,17.63
2019-01-11T23:20:53.472Z,17.97
2019-01-11T23:23:22.159Z,20.63
2019-01-11T23:25:50.814Z,18.13
2019-01-11T23:28:19.485Z,17.47
2019-01-11T23:30:48.195Z,18.70
2019-01-11T23:33:16.852Z,16.97
2019-01-11T23:35:45.528Z,14.40
2019-01-11T23:38:14.175Z,14.30
2019-01-11T23:40:42.875Z,13.53
2019-01-11T23:43:11.650Z,13.97
2019-01-11T23:45:40.281Z,14.07
2019-01-11T23:48:08.909Z,13.90
2019-01-11T23:50:37.681Z,12.60
2019-01-11T23:53:06.519Z,14.93
2019-01-11T23:55:35.160Z,15.50
2019-01-11T23:58:03.825Z,15.07
